sensor_id;sensor_type;location;lat;lon;timestamp;pressure;altitude;pressure_sealevel;temperature
19102;BMP280;9683;49.028;12.064;2023-08-17T00:01:14;97375.22;;;24.79
19102;BMP280;9683;49.028;12.064;2023-08-17T00:03:41;97383.22;;;24.76
19102;BMP280;9683;49.028;12.064;2023-08-17T00:06:08;97387.38;;;24.73
19102;BMP280;9683;49.028;12.064;2023-08-17T00:08:34;97384.84;;;24.77
19102;BMP280;9683;49.028;12.064;2023-08-17T00:11:01;97382.13;;;24.77
19102;BMP280;9683;49.028;12.064;2023-08-17T00:13:28;97393.81;;;24.77
19102;BMP280;9683;49.028;12.064;2023-08-17T00:15:54;97398.09;;;24.70
19102;BMP280;9683;49.028;12.064;2023-08-17T00:18:22;97400.13;;;24.64
19102;BMP280;9683;49.028;12.064;2023-08-17T00:20:48;97392.41;;;24.57
19102;BMP280;9683;49.028;12.064;2023-08-17T00:23:15;97403.44;;;24.52
19102;BMP280;9683;49.028;12.064;2023-08-17T00:25:41;97392.47;;;24.44
19102;BMP280;9683;49.028;12.064;2023-08-17T00:28:08;97387.94;;;24.39
19102;BMP280;9683;49.028;12.064;2023-08-17T00:30:34;97381.88;;;24.42
19102;BMP280;9683;49.028;12.064;2023-08-17T00:33:03;97370.50;;;24.40
19102;BMP280;9683;49.028;12.064;2023-08-17T00:35:31;97374.69;;;24.46
19102;BMP280;9683;49.028;12.064;2023-08-17T00:37:57;97371.50;;;24.44
19102;BMP280;9683;49.028;12.064;2023-08-17T00:40:24;97371.97;;;24.46
19102;BMP280;9683;49.028;12.064;2023-08-17T00:42:50;97377.59;;;24.50
19102;BMP280;9683;49.028;12.064;2023-08-17T00:45:18;97377.31;;;24.51
19102;BMP280;9683;49.028;12.064;2023-08-17T00:47:45;97374.88;;;24.50
19102;BMP280;9683;49.028;12.064;2023-08-17T00:50:13;97373.78;;;24.51
19102;BMP280;9683;49.028;12.064;2023-08-17T00:52:42;97361.78;;;24.52
19102;BMP280;9683;49.028;12.064;2023-08-17T00:55:09;97370.88;;;24.47
19102;BMP280;9683;49.028;12.064;2023-08-17T00:57:37;97359.47;;;24.45
19102;BMP280;9683;49.028;12.064;2023-08-17T01:00:06;97363.34;;;24.44
19102;BMP280;9683;49.028;12.064;2023-08-17T01:02:34;97371.16;;;24.46
19102;BMP280;9683;49.028;12.064;2023-08-17T01:05:01;97368.44;;;24.46
19102;BMP280;9683;49.028;12.064;2023-08-17T01:07:28;97367.84;;;24.49
19102;BMP280;9683;49.028;12.064;2023-08-17T01:09:55;97359.34;;;24.50
19102;BMP280;9683;49.028;12.064;2023-08-17T01:12:28;97360.97;;;24.51
19102;BMP280;9683;49.028;12.064;2023-08-17T01:15:00;97365.94;;;24.49
19102;BMP280;9683;49.028;12.064;2023-08-17T01:17:29;97370.56;;;24.49
19102;BMP280;9683;49.028;12.064;2023-08-17T01:19:58;97367.84;;;24.49
19102;BMP280;9683;49.028;12.064;2023-08-17T01:22:26;97367.03;;;24.48
19102;BMP280;9683;49.028;12.064;2023-08-17T01:24:55;97357.38;;;24.42
19102;BMP280;9683;49.028;12.064;2023-08-17T01:27:23;97356.72;;;24.37
19102;BMP280;9683;49.028;12.064;2023-08-17T01:29:50;97358.31;;;24.38
19102;BMP280;9683;49.028;12.064;2023-08-17T01:32:23;97354.69;;;24.29
19102;BMP280;9683;49.028;12.064;2023-08-17T01:34:56;97361.28;;;24.28
19102;BMP280;9683;49.028;12.064;2023-08-17T01:37:26;97364.00;;;24.28
19102;BMP280;9683;49.028;12.064;2023-08-17T01:39:56;97354.63;;;24.20
19102;BMP280;9683;49.028;12.064;2023-08-17T01:42:24;97364.41;;;24.21
19102;BMP280;9683;49.028;12.064;2023-08-17T01:44:52;97362.78;;;24.20
19102;BMP280;9683;49.028;12.064;2023-08-17T01:47:20;97362.31;;;24.18
19102;BMP280;9683;49.028;12.064;2023-08-17T01:49:47;97364.31;;;24.12
19102;BMP280;9683;49.028;12.064;2023-08-17T01:52:14;97366.56;;;24.10
19102;BMP280;9683;49.028;12.064;2023-08-17T01:54:41;97369.09;;;24.07
19102;BMP280;9683;49.028;12.064;2023-08-17T01:57:09;97369.91;;;24.07
19102;BMP280;9683;49.028;12.064;2023-08-17T01:59:35;97369.00;;;23.98
19102;BMP280;9683;49.028;12.064;2023-08-17T02:02:02;97370.03;;;23.89
19102;BMP280;9683;49.028;12.064;2023-08-17T02:04:28;97358.78;;;23.82
19102;BMP280;9683;49.028;12.064;2023-08-17T02:06:55;97360.28;;;23.74
19102;BMP280;9683;49.028;12.064;2023-08-17T02:09:21;97351.94;;;23.70
19102;BMP280;9683;49.028;12.064;2023-08-17T02:11:48;97343.19;;;23.60
19102;BMP280;9683;49.028;12.064;2023-08-17T02:14:15;97362.13;;;23.65
19102;BMP280;9683;49.028;12.064;2023-08-17T02:16:42;97362.41;;;23.63
19102;BMP280;9683;49.028;12.064;2023-08-17T02:19:08;97357.59;;;23.60
19102;BMP280;9683;49.028;12.064;2023-08-17T02:21:35;97347.81;;;23.46
19102;BMP280;9683;49.028;12.064;2023-08-17T02:24:01;97351.75;;;23.40
19102;BMP280;9683;49.028;12.064;2023-08-17T02:26:29;97365.63;;;23.38
19102;BMP280;9683;49.028;12.064;2023-08-17T02:28:56;97357.88;;;23.32
19102;BMP280;9683;49.028;12.064;2023-08-17T02:31:24;97357.88;;;23.32
19102;BMP280;9683;49.028;12.064;2023-08-17T02:33:50;97353.34;;;23.27
19102;BMP280;9683;49.028;12.064;2023-08-17T02:36:17;97360.19;;;23.24
19102;BMP280;9683;49.028;12.064;2023-08-17T02:38:43;97361.41;;;23.18
19102;BMP280;9683;49.028;12.064;2023-08-17T02:41:10;97364.69;;;23.15
19102;BMP280;9683;49.028;12.064;2023-08-17T02:43:36;97358.47;;;23.15
19102;BMP280;9683;49.028;12.064;2023-08-17T02:46:03;97355.75;;;23.15
19102;BMP280;9683;49.028;12.064;2023-08-17T02:48:33;97345.19;;;23.13
19102;BMP280;9683;49.028;12.064;2023-08-17T02:51:00;97348.41;;;23.15
19102;BMP280;9683;49.028;12.064;2023-08-17T02:53:26;97346.00;;;23.14
19102;BMP280;9683;49.028;12.064;2023-08-17T02:55:53;97345.50;;;23.12
19102;BMP280;9683;49.028;12.064;2023-08-17T02:58:19;97348.53;;;23.10
19102;BMP280;9683;49.028;12.064;2023-08-17T03:00:46;97352.03;;;23.11
19102;BMP280;9683;49.028;12.064;2023-08-17T03:03:12;97366.22;;;23.08
19102;BMP280;9683;49.028;12.064;2023-08-17T03:05:40;97367.03;;;23.08
19102;BMP280;9683;49.028;12.064;2023-08-17T03:08:07;97362.69;;;23.07
19102;BMP280;9683;49.028;12.064;2023-08-17T03:10:33;97355.97;;;23.05
19102;BMP280;9683;49.028;12.064;2023-08-17T03:13:00;97357.06;;;23.04
19102;BMP280;9683;49.028;12.064;2023-08-17T03:15:26;97358.97;;;23.03
19102;BMP280;9683;49.028;12.064;2023-08-17T03:17:53;97367.09;;;23.03
19102;BMP280;9683;49.028;12.064;2023-08-17T03:20:19;97363.09;;;23.01
19102;BMP280;9683;49.028;12.064;2023-08-17T03:22:47;97358.47;;;23.01
19102;BMP280;9683;49.028;12.064;2023-08-17T03:25:14;97358.84;;;22.95
19102;BMP280;9683;49.028;12.064;2023-08-17T03:27:40;97351.50;;;22.95
19102;BMP280;9683;49.028;12.064;2023-08-17T03:30:07;97355.22;;;22.99
19102;BMP280;9683;49.028;12.064;2023-08-17T03:32:34;97350.91;;;22.98
19102;BMP280;9683;49.028;12.064;2023-08-17T03:35:00;97348.69;;;23.00
19102;BMP280;9683;49.028;12.064;2023-08-17T03:37:27;97345.69;;;23.02
19102;BMP280;9683;49.028;12.064;2023-08-17T03:39:55;97347.28;;;23.03
19102;BMP280;9683;49.028;12.064;2023-08-17T03:42:21;97356.56;;;23.02
19102;BMP280;9683;49.028;12.064;2023-08-17T03:44:47;97364.72;;;23.02
19102;BMP280;9683;49.028;12.064;2023-08-17T03:47:14;97362.78;;;23.02
19102;BMP280;9683;49.028;12.064;2023-08-17T03:49:41;97370.31;;;22.92
19102;BMP280;9683;49.028;12.064;2023-08-17T03:52:07;97362.66;;;22.80
19102;BMP280;9683;49.028;12.064;2023-08-17T03:54:34;97368.03;;;22.66
19102;BMP280;9683;49.028;12.064;2023-08-17T03:57:02;97372.22;;;22.59
19102;BMP280;9683;49.028;12.064;2023-08-17T03:59:28;97363.97;;;22.50
19102;BMP280;9683;49.028;12.064;2023-08-17T04:01:55;97364.25;;;22.49
19102;BMP280;9683;49.028;12.064;2023-08-17T04:04:21;97363.75;;;22.47
19102;BMP280;9683;49.028;12.064;2023-08-17T04:06:48;97363.22;;;22.45
19102;BMP280;9683;49.028;12.064;2023-08-17T04:09:14;97361.59;;;22.44
19102;BMP280;9683;49.028;12.064;2023-08-17T04:11:41;97366.75;;;22.45
19102;BMP280;9683;49.028;12.064;2023-08-17T04:14:09;97368.84;;;22.48
19102;BMP280;9683;49.028;12.064;2023-08-17T04:16:36;97374.28;;;22.48
19102;BMP280;9683;49.028;12.064;2023-08-17T04:19:02;97371.06;;;22.46
19102;BMP280;9683;49.028;12.064;2023-08-17T04:21:29;97376.13;;;22.53
19102;BMP280;9683;49.028;12.064;2023-08-17T04:23:56;97379.13;;;22.51
19102;BMP280;9683;49.028;12.064;2023-08-17T04:26:22;97376.44;;;22.51
19102;BMP280;9683;49.028;12.064;2023-08-17T04:28:50;97371.50;;;22.53
19102;BMP280;9683;49.028;12.064;2023-08-17T04:31:18;97382.00;;;22.60
19102;BMP280;9683;49.028;12.064;2023-08-17T04:33:44;97363.34;;;22.53
19102;BMP280;9683;49.028;12.064;2023-08-17T04:36:11;97383.28;;;22.62
19102;BMP280;9683;49.028;12.064;2023-08-17T04:38:37;97374.63;;;22.60
19102;BMP280;9683;49.028;12.064;2023-08-17T04:41:04;97384.09;;;22.63
19102;BMP280;9683;49.028;12.064;2023-08-17T04:43:30;97391.34;;;22.67
19102;BMP280;9683;49.028;12.064;2023-08-17T04:45:57;97395.13;;;22.71
19102;BMP280;9683;49.028;12.064;2023-08-17T04:48:25;97393.41;;;22.75
19102;BMP280;9683;49.028;12.064;2023-08-17T04:50:51;97393.09;;;22.77
19102;BMP280;9683;49.028;12.064;2023-08-17T04:53:18;97400.75;;;22.75
19102;BMP280;9683;49.028;12.064;2023-08-17T04:55:44;97401.03;;;22.73
19102;BMP280;9683;49.028;12.064;2023-08-17T04:58:11;97396.13;;;22.75
19102;BMP280;9683;49.028;12.064;2023-08-17T05:00:38;97393.63;;;22.79
19102;BMP280;9683;49.028;12.064;2023-08-17T05:03:04;97398.16;;;22.83
19102;BMP280;9683;49.028;12.064;2023-08-17T05:05:32;97394.34;;;22.84
19102;BMP280;9683;49.028;12.064;2023-08-17T05:08:00;97402.38;;;22.90
19102;BMP280;9683;49.028;12.064;2023-08-17T05:10:27;97400.47;;;22.90
19102;BMP280;9683;49.028;12.064;2023-08-17T05:12:54;97400.00;;;22.88
19102;BMP280;9683;49.028;12.064;2023-08-17T05:15:21;97401.38;;;22.85
19102;BMP280;9683;49.028;12.064;2023-08-17T05:17:47;97398.66;;;22.85
19102;BMP280;9683;49.028;12.064;2023-08-17T05:20:14;97396.47;;;22.88
19102;BMP280;9683;49.028;12.064;2023-08-17T05:22:42;97393.47;;;22.89
19102;BMP280;9683;49.028;12.064;2023-08-17T05:25:09;97402.63;;;22.93
19102;BMP280;9683;49.028;12.064;2023-08-17T05:27:35;97392.25;;;22.95
19102;BMP280;9683;49.028;12.064;2023-08-17T05:30:02;97399.22;;;23.01
19102;BMP280;9683;49.028;12.064;2023-08-17T05:32:29;97396.69;;;23.05
19102;BMP280;9683;49.028;12.064;2023-08-17T05:34:56;97397.44;;;23.10
19102;BMP280;9683;49.028;12.064;2023-08-17T05:37:23;97401.72;;;23.11
19102;BMP280;9683;49.028;12.064;2023-08-17T05:39:51;97388.16;;;23.11
19102;BMP280;9683;49.028;12.064;2023-08-17T05:42:20;97396.63;;;23.10
19102;BMP280;9683;49.028;12.064;2023-08-17T05:44:46;97384.50;;;23.02
19102;BMP280;9683;49.028;12.064;2023-08-17T05:47:13;97404.75;;;23.10
19102;BMP280;9683;49.028;12.064;2023-08-17T05:49:42;97397.09;;;23.12
19102;BMP280;9683;49.028;12.064;2023-08-17T05:52:09;97398.94;;;23.16
19102;BMP280;9683;49.028;12.064;2023-08-17T05:54:35;97395.91;;;23.18
19102;BMP280;9683;49.028;12.064;2023-08-17T05:57:03;97393.09;;;23.23
19102;BMP280;9683;49.028;12.064;2023-08-17T05:59:30;97407.69;;;23.27
19102;BMP280;9683;49.028;12.064;2023-08-17T06:01:57;97400.84;;;23.29
19102;BMP280;9683;49.028;12.064;2023-08-17T06:04:23;97402.97;;;23.33
19102;BMP280;9683;49.028;12.064;2023-08-17T06:06:50;97405.09;;;23.36
19102;BMP280;9683;49.028;12.064;2023-08-17T06:09:16;97406.88;;;23.40
19102;BMP280;9683;49.028;12.064;2023-08-17T06:11:43;97407.94;;;23.44
19102;BMP280;9683;49.028;12.064;2023-08-17T06:14:10;97407.81;;;23.49
19102;BMP280;9683;49.028;12.064;2023-08-17T06:16:37;97404.53;;;23.52
19102;BMP280;9683;49.028;12.064;2023-08-17T06:19:04;97413.16;;;23.54
19102;BMP280;9683;49.028;12.064;2023-08-17T06:21:30;97418.00;;;23.57
19102;BMP280;9683;49.028;12.064;2023-08-17T06:23:57;97407.13;;;23.57
19102;BMP280;9683;49.028;12.064;2023-08-17T06:26:24;97413.56;;;23.61
19102;BMP280;9683;49.028;12.064;2023-08-17T06:28:50;97411.84;;;23.65
19102;BMP280;9683;49.028;12.064;2023-08-17T06:31:18;97418.81;;;23.71
19102;BMP280;9683;49.028;12.064;2023-08-17T06:33:45;97415.47;;;23.74
19102;BMP280;9683;49.028;12.064;2023-08-17T06:36:11;97421.41;;;23.77
19102;BMP280;9683;49.028;12.064;2023-08-17T06:38:41;97420.00;;;23.79
19102;BMP280;9683;49.028;12.064;2023-08-17T06:41:08;97418.28;;;23.83
19102;BMP280;9683;49.028;12.064;2023-08-17T06:43:34;97410.03;;;23.88
19102;BMP280;9683;49.028;12.064;2023-08-17T06:46:01;97408.31;;;23.92
19102;BMP280;9683;49.028;12.064;2023-08-17T06:48:29;97416.06;;;23.99
19102;BMP280;9683;49.028;12.064;2023-08-17T06:50:58;97415.75;;;24.00
19102;BMP280;9683;49.028;12.064;2023-08-17T06:53:25;97415.94;;;24.04
19102;BMP280;9683;49.028;12.064;2023-08-17T06:55:51;97419.06;;;24.11
19102;BMP280;9683;49.028;12.064;2023-08-17T06:58:18;97412.72;;;24.15
19102;BMP280;9683;49.028;12.064;2023-08-17T07:00:45;97409.06;;;24.20
19102;BMP280;9683;49.028;12.064;2023-08-17T07:03:11;97422.56;;;24.25
19102;BMP280;9683;49.028;12.064;2023-08-17T07:05:39;97418.94;;;24.30
19102;BMP280;9683;49.028;12.064;2023-08-17T07:08:06;97421.03;;;24.33
19102;BMP280;9683;49.028;12.064;2023-08-17T07:10:33;97418.00;;;24.34
19102;BMP280;9683;49.028;12.064;2023-08-17T07:12:59;97421.41;;;24.40
19102;BMP280;9683;49.028;12.064;2023-08-17T07:15:28;97422.41;;;24.44
19102;BMP280;9683;49.028;12.064;2023-08-17T07:17:55;97428.34;;;24.46
19102;BMP280;9683;49.028;12.064;2023-08-17T07:20:22;97429.34;;;24.50
19102;BMP280;9683;49.028;12.064;2023-08-17T07:22:50;97431.47;;;24.53
19102;BMP280;9683;49.028;12.064;2023-08-17T07:25:16;97433.84;;;24.54
19102;BMP280;9683;49.028;12.064;2023-08-17T07:27:43;97432.47;;;24.57
19102;BMP280;9683;49.028;12.064;2023-08-17T07:30:10;97445.63;;;24.63
19102;BMP280;9683;49.028;12.064;2023-08-17T07:32:37;97444.22;;;24.66
19102;BMP280;9683;49.028;12.064;2023-08-17T07:35:05;97449.53;;;24.71
19102;BMP280;9683;49.028;12.064;2023-08-17T07:37:31;97445.22;;;24.70
19102;BMP280;9683;49.028;12.064;2023-08-17T07:40:00;97443.16;;;24.76
19102;BMP280;9683;49.028;12.064;2023-08-17T07:42:28;97443.66;;;24.78
19102;BMP280;9683;49.028;12.064;2023-08-17T07:44:55;97446.88;;;24.80
19102;BMP280;9683;49.028;12.064;2023-08-17T07:47:22;97448.19;;;24.82
19102;BMP280;9683;49.028;12.064;2023-08-17T07:49:48;97443.75;;;24.86
19102;BMP280;9683;49.028;12.064;2023-08-17T07:52:15;97439.59;;;24.89
19102;BMP280;9683;49.028;12.064;2023-08-17T07:54:41;97447.66;;;24.94
19102;BMP280;9683;49.028;12.064;2023-08-17T07:57:09;97444.00;;;24.98
19102;BMP280;9683;49.028;12.064;2023-08-17T07:59:36;97435.47;;;24.91
19102;BMP280;9683;49.028;12.064;2023-08-17T08:02:02;97444.16;;;25.02
19102;BMP280;9683;49.028;12.064;2023-08-17T08:04:29;97435.38;;;25.05
19102;BMP280;9683;49.028;12.064;2023-08-17T08:06:55;97434.13;;;25.11
19102;BMP280;9683;49.028;12.064;2023-08-17T08:09:22;97432.38;;;25.15
19102;BMP280;9683;49.028;12.064;2023-08-17T08:11:48;97439.94;;;25.18
19102;BMP280;9683;49.028;12.064;2023-08-17T08:14:16;97432.44;;;25.24
19102;BMP280;9683;49.028;12.064;2023-08-17T08:16:43;97421.66;;;25.19
19102;BMP280;9683;49.028;12.064;2023-08-17T08:19:09;97432.59;;;25.27
19102;BMP280;9683;49.028;12.064;2023-08-17T08:21:36;97439.56;;;25.33
19102;BMP280;9683;49.028;12.064;2023-08-17T08:24:03;97424.47;;;25.36
19102;BMP280;9683;49.028;12.064;2023-08-17T08:26:30;97429.13;;;25.35
19102;BMP280;9683;49.028;12.064;2023-08-17T08:28:56;97435.88;;;25.38
19102;BMP280;9683;49.028;12.064;2023-08-17T08:31:24;97437.03;;;25.45
19102;BMP280;9683;49.028;12.064;2023-08-17T08:33:51;97440.56;;;25.46
19102;BMP280;9683;49.028;12.064;2023-08-17T08:36:18;97439.13;;;25.48
19102;BMP280;9683;49.028;12.064;2023-08-17T08:38:45;97432.88;;;25.48
19102;BMP280;9683;49.028;12.064;2023-08-17T08:41:11;97436.91;;;25.50
19102;BMP280;9683;49.028;12.064;2023-08-17T08:43:38;97428.72;;;25.50
19102;BMP280;9683;49.028;12.064;2023-08-17T08:46:05;97426.66;;;25.56
19102;BMP280;9683;49.028;12.064;2023-08-17T08:48:34;97432.78;;;25.62
19102;BMP280;9683;49.028;12.064;2023-08-17T08:51:03;97434.88;;;25.65
19102;BMP280;9683;49.028;12.064;2023-08-17T08:53:34;97428.78;;;25.68
19102;BMP280;9683;49.028;12.064;2023-08-17T08:56:03;97431.38;;;25.73
19102;BMP280;9683;49.028;12.064;2023-08-17T08:58:31;97428.03;;;25.76
19102;BMP280;9683;49.028;12.064;2023-08-17T09:01:00;97436.06;;;25.81
19102;BMP280;9683;49.028;12.064;2023-08-17T09:03:28;97425.66;;;25.83
19102;BMP280;9683;49.028;12.064;2023-08-17T09:05:58;97427.91;;;25.89
19102;BMP280;9683;49.028;12.064;2023-08-17T09:08:27;97425.31;;;25.93
19102;BMP280;9683;49.028;12.064;2023-08-17T09:10:54;97422.78;;;25.96
19102;BMP280;9683;49.028;12.064;2023-08-17T09:13:21;97406.56;;;26.00
19102;BMP280;9683;49.028;12.064;2023-08-17T09:15:47;97414.13;;;26.03
19102;BMP280;9683;49.028;12.064;2023-08-17T09:18:15;97402.91;;;26.05
19102;BMP280;9683;49.028;12.064;2023-08-17T09:20:43;97412.22;;;26.12
19102;BMP280;9683;49.028;12.064;2023-08-17T09:23:13;97409.00;;;26.19
19102;BMP280;9683;49.028;12.064;2023-08-17T09:25:42;97398.88;;;26.19
19102;BMP280;9683;49.028;12.064;2023-08-17T09:28:10;97402.13;;;26.21
19102;BMP280;9683;49.028;12.064;2023-08-17T09:30:52;97399.41;;;26.30
19102;BMP280;9683;49.028;12.064;2023-08-17T09:33:19;97398.25;;;26.31
19102;BMP280;9683;49.028;12.064;2023-08-17T09:35:46;97401.19;;;26.34
19102;BMP280;9683;49.028;12.064;2023-08-17T09:38:14;97403.13;;;26.42
19102;BMP280;9683;49.028;12.064;2023-08-17T09:40:41;97397.81;;;26.46
19102;BMP280;9683;49.028;12.064;2023-08-17T09:43:09;97401.50;;;26.50
19102;BMP280;9683;49.028;12.064;2023-08-17T09:45:37;97396.19;;;26.54
19102;BMP280;9683;49.028;12.064;2023-08-17T09:48:05;97403.72;;;26.57
19102;BMP280;9683;49.028;12.064;2023-08-17T09:50:32;97397.94;;;26.58
19102;BMP280;9683;49.028;12.064;2023-08-17T09:52:59;97387.50;;;26.60
19102;BMP280;9683;49.028;12.064;2023-08-17T09:55:26;97391.53;;;26.63
19102;BMP280;9683;49.028;12.064;2023-08-17T09:57:54;97395.53;;;26.65
19102;BMP280;9683;49.028;12.064;2023-08-17T10:00:21;97396.47;;;26.69
19102;BMP280;9683;49.028;12.064;2023-08-17T10:02:49;97399.38;;;26.73
19102;BMP280;9683;49.028;12.064;2023-08-17T10:05:18;97393.44;;;26.79
19102;BMP280;9683;49.028;12.064;2023-08-17T10:07:47;97395.50;;;26.82
19102;BMP280;9683;49.028;12.064;2023-08-17T10:10:16;97393.56;;;26.83
19102;BMP280;9683;49.028;12.064;2023-08-17T10:12:49;97392.78;;;26.91
19102;BMP280;9683;49.028;12.064;2023-08-17T10:15:19;97388.94;;;26.92
19102;BMP280;9683;49.028;12.064;2023-08-17T10:17:53;97389.88;;;26.96
19102;BMP280;9683;49.028;12.064;2023-08-17T10:20:22;97380.56;;;26.97
19102;BMP280;9683;49.028;12.064;2023-08-17T10:22:53;97385.81;;;27.02
19102;BMP280;9683;49.028;12.064;2023-08-17T10:25:26;97387.59;;;27.07
19102;BMP280;9683;49.028;12.064;2023-08-17T10:27:55;97383.72;;;27.08
19102;BMP280;9683;49.028;12.064;2023-08-17T10:30:22;97389.19;;;27.08
19102;BMP280;9683;49.028;12.064;2023-08-17T10:32:49;97377.94;;;27.09
19102;BMP280;9683;49.028;12.064;2023-08-17T10:35:15;97371.81;;;27.12
19102;BMP280;9683;49.028;12.064;2023-08-17T10:37:42;97371.66;;;27.17
19102;BMP280;9683;49.028;12.064;2023-08-17T10:40:10;97371.94;;;27.24
19102;BMP280;9683;49.028;12.064;2023-08-17T10:42:36;97365.34;;;27.25
19102;BMP280;9683;49.028;12.064;2023-08-17T10:45:29;97371.44;;;27.31
19102;BMP280;9683;49.028;12.064;2023-08-17T10:48:25;97371.91;;;27.33
19102;BMP280;9683;49.028;12.064;2023-08-17T10:51:02;97379.44;;;27.36
19102;BMP280;9683;49.028;12.064;2023-08-17T10:53:34;97362.56;;;27.34
19102;BMP280;9683;49.028;12.064;2023-08-17T10:56:01;97356.91;;;27.39
19102;BMP280;9683;49.028;12.064;2023-08-17T10:58:33;97361.56;;;27.47
19102;BMP280;9683;49.028;12.064;2023-08-17T11:01:02;97360.75;;;27.47
19102;BMP280;9683;49.028;12.064;2023-08-17T11:03:29;97363.31;;;27.52
19102;BMP280;9683;49.028;12.064;2023-08-17T11:05:56;97358.31;;;27.54
19102;BMP280;9683;49.028;12.064;2023-08-17T11:08:28;97362.78;;;27.58
19102;BMP280;9683;49.028;12.064;2023-08-17T11:11:01;97361.13;;;27.66
19102;BMP280;9683;49.028;12.064;2023-08-17T11:13:29;97360.94;;;27.71
19102;BMP280;9683;49.028;12.064;2023-08-17T11:15:58;97358.47;;;27.78
19102;BMP280;9683;49.028;12.064;2023-08-17T11:18:26;97358.66;;;27.82
19102;BMP280;9683;49.028;12.064;2023-08-17T11:20:53;97370.06;;;27.84
19102;BMP280;9683;49.028;12.064;2023-08-17T11:23:20;97360.03;;;27.88
19102;BMP280;9683;49.028;12.064;2023-08-17T11:25:49;97362.09;;;27.91
19102;BMP280;9683;49.028;12.064;2023-08-17T11:28:16;97358.84;;;27.97
19102;BMP280;9683;49.028;12.064;2023-08-17T11:30:43;97356.72;;;28.03
19102;BMP280;9683;49.028;12.064;2023-08-17T11:33:10;97349.09;;;28.08
19102;BMP280;9683;49.028;12.064;2023-08-17T11:35:38;97348.25;;;28.16
19102;BMP280;9683;49.028;12.064;2023-08-17T11:38:05;97347.88;;;28.27
19102;BMP280;9683;49.028;12.064;2023-08-17T11:40:32;97351.34;;;28.36
19102;BMP280;9683;49.028;12.064;2023-08-17T11:42:59;97343.38;;;28.43
19102;BMP280;9683;49.028;12.064;2023-08-17T11:45:25;97346.69;;;28.48
19102;BMP280;9683;49.028;12.064;2023-08-17T11:47:52;97350.03;;;28.54
19102;BMP280;9683;49.028;12.064;2023-08-17T11:50:18;97343.19;;;28.60
19102;BMP280;9683;49.028;12.064;2023-08-17T11:52:46;97334.88;;;28.68
19102;BMP280;9683;49.028;12.064;2023-08-17T11:55:16;97340.00;;;28.79
19102;BMP280;9683;49.028;12.064;2023-08-17T11:57:43;97344.09;;;28.85
19102;BMP280;9683;49.028;12.064;2023-08-17T12:00:16;97341.16;;;28.90
19102;BMP280;9683;49.028;12.064;2023-08-17T12:02:43;97338.53;;;28.93
19102;BMP280;9683;49.028;12.064;2023-08-17T12:05:09;97340.84;;;29.03
19102;BMP280;9683;49.028;12.064;2023-08-17T12:07:37;97333.16;;;29.09
19102;BMP280;9683;49.028;12.064;2023-08-17T12:10:06;97341.41;;;29.21
19102;BMP280;9683;49.028;12.064;2023-08-17T12:12:37;97327.94;;;29.28
19102;BMP280;9683;49.028;12.064;2023-08-17T12:15:05;97335.63;;;29.35
19102;BMP280;9683;49.028;12.064;2023-08-17T12:17:32;97325.13;;;29.37
19102;BMP280;9683;49.028;12.064;2023-08-17T12:19:58;97329.00;;;29.48
19102;BMP280;9683;49.028;12.064;2023-08-17T12:22:27;97324.50;;;29.55
19102;BMP280;9683;49.028;12.064;2023-08-17T12:24:54;97319.72;;;29.65
19102;BMP280;9683;49.028;12.064;2023-08-17T12:27:22;97320.38;;;29.74
19102;BMP280;9683;49.028;12.064;2023-08-17T12:29:51;97313.16;;;29.81
19102;BMP280;9683;49.028;12.064;2023-08-17T12:32:19;97307.13;;;29.88
19102;BMP280;9683;49.028;12.064;2023-08-17T12:34:46;97300.94;;;29.91
19102;BMP280;9683;49.028;12.064;2023-08-17T12:37:18;97292.19;;;30.01
19102;BMP280;9683;49.028;12.064;2023-08-17T12:39:45;97299.50;;;30.09
19102;BMP280;9683;49.028;12.064;2023-08-17T12:42:11;97286.78;;;30.17
19102;BMP280;9683;49.028;12.064;2023-08-17T12:44:40;97290.50;;;30.24
19102;BMP280;9683;49.028;12.064;2023-08-17T12:47:07;97280.50;;;30.32
19102;BMP280;9683;49.028;12.064;2023-08-17T12:49:33;97285.03;;;30.40
19102;BMP280;9683;49.028;12.064;2023-08-17T12:52:00;97280.94;;;30.46
19102;BMP280;9683;49.028;12.064;2023-08-17T12:54:27;97279.16;;;30.54
19102;BMP280;9683;49.028;12.064;2023-08-17T12:56:53;97281.75;;;30.62
19102;BMP280;9683;49.028;12.064;2023-08-17T12:59:20;97274.88;;;30.68
19102;BMP280;9683;49.028;12.064;2023-08-17T13:01:48;97277.78;;;30.75
19102;BMP280;9683;49.028;12.064;2023-08-17T13:04:14;97283.13;;;30.84
19102;BMP280;9683;49.028;12.064;2023-08-17T13:06:41;97281.00;;;30.93
19102;BMP280;9683;49.028;12.064;2023-08-17T13:09:07;97275.94;;;30.95
19102;BMP280;9683;49.028;12.064;2023-08-17T13:11:34;97272.81;;;30.97
19102;BMP280;9683;49.028;12.064;2023-08-17T13:14:01;97277.72;;;31.03
19102;BMP280;9683;49.028;12.064;2023-08-17T13:16:27;97273.91;;;31.08
19102;BMP280;9683;49.028;12.064;2023-08-17T13:18:55;97261.56;;;31.17
19102;BMP280;9683;49.028;12.064;2023-08-17T13:21:21;97268.84;;;31.25
19102;BMP280;9683;49.028;12.064;2023-08-17T13:23:48;97261.53;;;31.33
19102;BMP280;9683;49.028;12.064;2023-08-17T13:26:15;97251.47;;;31.40
19102;BMP280;9683;49.028;12.064;2023-08-17T13:28:41;97257.25;;;31.51
19102;BMP280;9683;49.028;12.064;2023-08-17T13:31:08;97260.97;;;31.59
19102;BMP280;9683;49.028;12.064;2023-08-17T13:33:34;97257.97;;;31.64
19102;BMP280;9683;49.028;12.064;2023-08-17T13:36:02;97255.00;;;31.72
19102;BMP280;9683;49.028;12.064;2023-08-17T13:38:29;97256.28;;;31.78
19102;BMP280;9683;49.028;12.064;2023-08-17T13:40:56;97250.06;;;31.81
19102;BMP280;9683;49.028;12.064;2023-08-17T13:43:23;97242.75;;;31.89
19102;BMP280;9683;49.028;12.064;2023-08-17T13:45:49;97254.72;;;31.97
19102;BMP280;9683;49.028;12.064;2023-08-17T13:48:16;97244.28;;;32.06
19102;BMP280;9683;49.028;12.064;2023-08-17T13:50:43;97244.88;;;32.15
19102;BMP280;9683;49.028;12.064;2023-08-17T13:53:11;97244.66;;;32.23
19102;BMP280;9683;49.028;12.064;2023-08-17T13:55:38;97236.38;;;32.23
19102;BMP280;9683;49.028;12.064;2023-08-17T13:58:05;97234.91;;;32.29
19102;BMP280;9683;49.028;12.064;2023-08-17T14:00:31;97237.44;;;32.38
19102;BMP280;9683;49.028;12.064;2023-08-17T14:02:58;97233.22;;;32.44
19102;BMP280;9683;49.028;12.064;2023-08-17T14:05:24;97236.41;;;32.46
19102;BMP280;9683;49.028;12.064;2023-08-17T14:07:51;97237.28;;;32.50
19102;BMP280;9683;49.028;12.064;2023-08-17T14:10:19;97236.19;;;32.55